Time;durP1;ratioP1;P1;durP2;ratioP2;P2;SDS_P1;SDS_P2;PMS_P1;PMS_P2;Temp;Humidity;BMP_temperature;BMP_pressure;BME280_temperature;BME280_humidity;BME280_pressure;Samples;Min_cycle;Max_cycle;Signal;HPM_P1;HPM_P2
2020/12/13 00:01:53;;;;;;;;;;;25.90;47.60;;;;;;5030411;28;19914;-52
2020/12/13 00:04:18;;;;;;;;;;;25.90;47.60;;;;;;5029501;28;19968;-53
2020/12/13 00:06:44;;;;;;;;;;;25.90;47.50;;;;;;5029535;28;19921;-52
2020/12/13 00:09:09;;;;;;;;;;;25.80;47.40;;;;;;5030052;28;19917;-52
2020/12/13 00:11:35;;;;;;;;;;;25.90;47.40;;;;;;5029769;28;19952;-53
2020/12/13 00:14:04;;;;;;;;;;;25.90;47.40;;;;;;5029966;28;20055;-52
2020/12/13 00:16:29;;;;;;;;;;;25.90;47.40;;;;;;5029206;28;20355;-52
2020/12/13 00:18:55;;;;;;;;;;;25.80;47.20;;;;;;5029603;28;19920;-53
2020/12/13 00:21:26;;;;;;;;;;;25.80;47.20;;;;;;5029421;28;20068;-52
2020/12/13 00:23:51;;;;;;;;;;;25.90;47.20;;;;;;5029450;28;19929;-52
2020/12/13 00:26:17;;;;;;;;;;;25.80;47.10;;;;;;5029043;28;20023;-51
2020/12/13 00:28:43;;;;;;;;;;;25.90;47.10;;;;;;5030110;28;19921;-55
2020/12/13 00:31:12;;;;;;;;;;;25.80;47.00;;;;;;5029428;28;19972;-52
2020/12/13 00:33:37;;;;;;;;;;;25.80;47.00;;;;;;5029711;28;19928;-53
2020/12/13 00:36:03;;;;;;;;;;;25.80;46.90;;;;;;5029355;28;19987;-53
2020/12/13 00:38:28;;;;;;;;;;;25.80;46.90;;;;;;5030263;28;19952;-54
2020/12/13 00:40:53;;;;;;;;;;;25.80;46.90;;;;;;5029372;28;19913;-52
2020/12/13 00:43:19;;;;;;;;;;;25.80;46.90;;;;;;5030056;28;20572;-53
2020/12/13 00:45:44;;;;;;;;;;;25.80;46.80;;;;;;5028735;28;19967;-53
2020/12/13 00:48:10;;;;;;;;;;;25.80;46.70;;;;;;5029694;28;19921;-52
2020/12/13 00:50:36;;;;;;;;;;;25.80;46.80;;;;;;5029467;28;19972;-54
2020/12/13 00:53:01;;;;;;;;;;;25.80;46.70;;;;;;5028915;28;19913;-52
2020/12/13 00:55:27;;;;;;;;;;;25.80;47.30;;;;;;5029389;28;19936;-55
2020/12/13 00:57:52;;;;;;;;;;;25.80;46.60;;;;;;5029461;28;19921;-52
2020/12/13 01:00:18;;;;;;;;;;;25.80;46.50;;;;;;5029844;28;20344;-53
2020/12/13 01:02:43;;;;;;;;;;;25.80;46.50;;;;;;5028895;28;19961;-54
2020/12/13 01:05:09;;;;;;;;;;;25.80;46.50;;;;;;5028546;28;19975;-52
2020/12/13 01:07:35;;;;;;;;;;;25.80;46.50;;;;;;5028873;28;19943;-52
2020/12/13 01:10:01;;;;;;;;;;;25.80;46.50;;;;;;5028884;28;19921;-53
2020/12/13 01:12:26;;;;;;;;;;;25.80;46.50;;;;;;5028691;28;20333;-53
2020/12/13 01:14:52;;;;;;;;;;;25.80;46.50;;;;;;5027821;28;20000;-52
2020/12/13 01:17:17;;;;;;;;;;;25.80;46.40;;;;;;5028570;28;19955;-54
2020/12/13 01:19:47;;;;;;;;;;;25.70;46.40;;;;;;5028507;28;20682;-52
2020/12/13 01:22:12;;;;;;;;;;;25.80;46.50;;;;;;5028435;28;20311;-52
2020/12/13 01:24:38;;;;;;;;;;;25.70;46.40;;;;;;5028301;28;19914;-53
2020/12/13 01:27:03;;;;;;;;;;;25.70;46.40;;;;;;5028160;28;19967;-53
2020/12/13 01:29:29;;;;;;;;;;;25.80;46.30;;;;;;5027752;28;19923;-52
2020/12/13 01:31:54;;;;;;;;;;;25.70;46.30;;;;;;5028768;28;20283;-52
2020/12/13 01:34:20;;;;;;;;;;;25.70;46.20;;;;;;5027888;28;19987;-53
2020/12/13 01:36:45;;;;;;;;;;;25.70;46.20;;;;;;5028772;28;19967;-52
2020/12/13 01:39:11;;;;;;;;;;;25.70;46.20;;;;;;5029344;28;20101;-53
2020/12/13 01:41:36;;;;;;;;;;;25.80;46.20;;;;;;5028453;28;19920;-53
2020/12/13 01:44:05;;;;;;;;;;;25.70;46.10;;;;;;5027995;28;19921;-52
2020/12/13 01:46:31;;;;;;;;;;;25.70;46.10;;;;;;5027970;28;20374;-52
2020/12/13 01:48:59;;;;;;;;;;;25.70;46.10;;;;;;5028810;28;19913;-54
2020/12/13 01:54:23;;;;;;;;;;;25.70;46.10;;;;;;5031060;28;19929;-52
2020/12/13 01:56:49;;;;;;;;;;;25.70;46.10;;;;;;5028521;28;20236;-52
2020/12/13 01:59:15;;;;;;;;;;;25.70;46.10;;;;;;5028692;28;19978;-52
2020/12/13 02:01:40;;;;;;;;;;;25.70;46.10;;;;;;5027839;28;19921;-53
2020/12/13 02:04:06;;;;;;;;;;;25.70;46.10;;;;;;5027818;28;19921;-53
2020/12/13 02:06:31;;;;;;;;;;;25.70;46.10;;;;;;5028662;28;19952;-52
2020/12/13 02:08:57;;;;;;;;;;;25.70;46.60;;;;;;5026973;28;19921;-52
2020/12/13 02:11:22;;;;;;;;;;;25.70;46.00;;;;;;5028056;28;19929;-54
2020/12/13 02:13:48;;;;;;;;;;;25.70;45.90;;;;;;5027905;28;19921;-53
2020/12/13 02:16:14;;;;;;;;;;;25.70;46.00;;;;;;5028551;28;19927;-52
2020/12/13 02:18:41;;;;;;;;;;;25.70;45.90;;;;;;5027716;28;19917;-52
2020/12/13 02:21:10;;;;;;;;;;;25.70;45.90;;;;;;5028358;28;19922;-52
2020/12/13 02:23:37;;;;;;;;;;;25.70;45.90;;;;;;5027602;28;19921;-54
2020/12/13 02:26:02;;;;;;;;;;;25.60;45.90;;;;;;5027718;28;19966;-52
2020/12/13 02:28:28;;;;;;;;;;;25.70;45.90;;;;;;5027727;28;19917;-52
2020/12/13 02:30:53;;;;;;;;;;;25.70;45.90;;;;;;5027851;28;20359;-52
2020/12/13 02:33:19;;;;;;;;;;;25.70;45.90;;;;;;5027830;28;19996;-53
2020/12/13 02:35:44;;;;;;;;;;;25.70;45.80;;;;;;5026852;28;19921;-55
2020/12/13 02:38:10;;;;;;;;;;;25.70;45.80;;;;;;5028125;28;19921;-53
2020/12/13 02:40:35;;;;;;;;;;;25.60;45.70;;;;;;5031534;28;19917;-54
2020/12/13 02:43:00;;;;;;;;;;;25.70;45.80;;;;;;5031684;28;19913;-53
2020/12/13 02:45:26;;;;;;;;;;;25.70;45.70;;;;;;5031410;28;20011;-52
2020/12/13 02:47:51;;;;;;;;;;;25.70;45.80;;;;;;5031872;28;20286;-52
2020/12/13 02:50:17;;;;;;;;;;;25.70;45.70;;;;;;5031011;28;20394;-52
2020/12/13 02:52:42;;;;;;;;;;;25.70;45.70;;;;;;5031338;28;19913;-52
2020/12/13 02:55:08;;;;;;;;;;;25.70;45.70;;;;;;5030807;28;20267;-52
2020/12/13 02:57:33;;;;;;;;;;;25.60;45.60;;;;;;5030989;28;19925;-53
2020/12/13 02:59:59;;;;;;;;;;;25.60;45.60;;;;;;5030089;28;19929;-53
2020/12/13 03:02:24;;;;;;;;;;;25.60;45.70;;;;;;5030675;28;19920;-51
2020/12/13 03:04:50;;;;;;;;;;;25.60;45.70;;;;;;5030821;28;20433;-52
2020/12/13 03:07:15;;;;;;;;;;;25.70;45.70;;;;;;5031667;28;20011;-53
2020/12/13 03:09:41;;;;;;;;;;;25.60;46.20;;;;;;5031620;28;20351;-53
2020/12/13 03:12:06;;;;;;;;;;;25.60;45.60;;;;;;5030792;28;19921;-52
2020/12/13 03:14:31;;;;;;;;;;;25.60;45.60;;;;;;5031632;28;19921;-52
2020/12/13 03:16:57;;;;;;;;;;;25.60;45.60;;;;;;5031185;28;19921;-52
2020/12/13 03:19:22;;;;;;;;;;;25.60;45.60;;;;;;5030421;28;20276;-52
2020/12/13 03:21:48;;;;;;;;;;;25.60;45.50;;;;;;5030873;28;19917;-52
2020/12/13 03:24:13;;;;;;;;;;;25.60;45.50;;;;;;5030774;28;19940;-53
2020/12/13 03:26:39;;;;;;;;;;;25.60;45.50;;;;;;5031123;28;19921;-52
2020/12/13 03:29:04;;;;;;;;;;;25.60;45.50;;;;;;5030617;28;19921;-53
2020/12/13 03:31:30;;;;;;;;;;;25.60;45.50;;;;;;5030550;28;19948;-52
2020/12/13 03:33:55;;;;;;;;;;;25.60;45.50;;;;;;5030309;28;20413;-52
2020/12/13 03:36:21;;;;;;;;;;;25.60;45.50;;;;;;5030424;28;19923;-52
2020/12/13 03:38:46;;;;;;;;;;;25.60;45.40;;;;;;5030124;28;21096;-52
2020/12/13 03:41:12;;;;;;;;;;;25.60;45.30;;;;;;5031296;28;19913;-53
2020/12/13 03:43:37;;;;;;;;;;;25.60;45.40;;;;;;5030645;28;20411;-52
2020/12/13 03:46:03;;;;;;;;;;;25.60;45.40;;;;;;5030414;28;19917;-52
2020/12/13 03:48:28;;;;;;;;;;;25.60;45.40;;;;;;5030330;28;19967;-52
2020/12/13 03:50:54;;;;;;;;;;;25.60;45.40;;;;;;5029082;28;19999;-52
2020/12/13 03:53:19;;;;;;;;;;;25.60;45.40;;;;;;5029775;28;19924;-52
2020/12/13 03:55:45;;;;;;;;;;;25.60;45.30;;;;;;5030444;28;20039;-52
2020/12/13 03:58:10;;;;;;;;;;;25.60;45.30;;;;;;5030494;28;19917;-52
2020/12/13 04:00:36;;;;;;;;;;;25.60;45.30;;;;;;5029712;28;19919;-51
2020/12/13 04:03:04;;;;;;;;;;;25.60;45.30;;;;;;5029756;28;19924;-52
2020/12/13 04:05:33;;;;;;;;;;;25.60;45.30;;;;;;5029861;28;19917;-53
2020/12/13 04:07:58;;;;;;;;;;;25.60;45.30;;;;;;5030670;28;19943;-52
2020/12/13 04:10:25;;;;;;;;;;;25.60;45.30;;;;;;5030580;28;20302;-53
2020/12/13 04:12:50;;;;;;;;;;;25.60;45.30;;;;;;5029290;28;19928;-52
2020/12/13 04:15:16;;;;;;;;;;;25.60;45.30;;;;;;5030106;28;19921;-52
2020/12/13 04:17:41;;;;;;;;;;;25.60;45.30;;;;;;5029437;28;19977;-53
2020/12/13 04:20:07;;;;;;;;;;;25.60;45.30;;;;;;5029779;28;19916;-52
2020/12/13 04:22:32;;;;;;;;;;;25.60;45.20;;;;;;5029925;28;19917;-53
2020/12/13 04:24:58;;;;;;;;;;;25.60;45.20;;;;;;5029151;28;20043;-53
2020/12/13 04:27:23;;;;;;;;;;;25.60;45.20;;;;;;5029571;28;20004;-53
2020/12/13 04:29:49;;;;;;;;;;;25.60;45.20;;;;;;5029764;28;20367;-52
2020/12/13 04:32:14;;;;;;;;;;;25.60;45.20;;;;;;5029120;28;20282;-53
2020/12/13 04:34:40;;;;;;;;;;;25.60;45.10;;;;;;5029249;28;19940;-53
2020/12/13 04:37:05;;;;;;;;;;;25.60;45.20;;;;;;5030265;28;20326;-53
2020/12/13 04:39:31;;;;;;;;;;;25.50;45.10;;;;;;5029286;28;20392;-52
2020/12/13 04:41:56;;;;;;;;;;;25.60;45.10;;;;;;5028977;28;19921;-52
2020/12/13 04:44:22;;;;;;;;;;;25.50;45.10;;;;;;5029604;28;19920;-52
2020/12/13 04:46:48;;;;;;;;;;;25.50;45.10;;;;;;5028899;28;19921;-53
2020/12/13 04:49:13;;;;;;;;;;;25.50;45.10;;;;;;5028070;28;20056;-52
2020/12/13 04:51:41;;;;;;;;;;;25.60;45.10;;;;;;5029646;28;20374;-54
2020/12/13 04:54:07;;;;;;;;;;;25.50;45.10;;;;;;5029070;28;19921;-52
2020/12/13 04:56:33;;;;;;;;;;;25.50;45.10;;;;;;5028963;28;20410;-52
2020/12/13 04:59:02;;;;;;;;;;;25.50;45.10;;;;;;5028764;28;20398;-53
2020/12/13 05:01:28;;;;;;;;;;;25.50;45.10;;;;;;5028930;28;19921;-53
2020/12/13 05:03:53;;;;;;;;;;;25.50;45.10;;;;;;5028809;28;20305;-52
2020/12/13 05:06:19;;;;;;;;;;;25.50;45.00;;;;;;5029256;28;19920;-52
2020/12/13 05:08:47;;;;;;;;;;;25.50;44.90;;;;;;5029723;28;19982;-52
2020/12/13 05:11:13;;;;;;;;;;;25.50;45.00;;;;;;5029176;28;19921;-54
2020/12/13 05:13:38;;;;;;;;;;;25.50;45.00;;;;;;5028834;28;19928;-53
2020/12/13 05:16:07;;;;;;;;;;;25.50;44.90;;;;;;5028354;28;19921;-52
2020/12/13 05:18:32;;;;;;;;;;;25.50;45.00;;;;;;5028881;28;20007;-52
2020/12/13 05:20:58;;;;;;;;;;;25.50;45.00;;;;;;5028710;28;19960;-52
2020/12/13 05:23:24;;;;;;;;;;;25.50;45.00;;;;;;5028304;28;19924;-52
2020/12/13 05:25:49;;;;;;;;;;;25.50;44.90;;;;;;5027003;28;19921;-52
2020/12/13 05:28:15;;;;;;;;;;;25.60;44.90;;;;;;5026851;28;20339;-55
2020/12/13 05:30:46;;;;;;;;;;;25.50;44.80;;;;;;5027035;28;19921;-52
2020/12/13 05:33:38;;;;;;;;;;;25.50;44.80;;;;;;5028756;28;19979;-51
2020/12/13 05:36:01;;;;;;;;;;;25.50;44.80;;;;;;5028036;28;20313;-49
2020/12/13 05:38:27;;;;;;;;;;;;;;;;;;5027890;28;19920;-49
2020/12/13 05:40:52;;;;;;;;;;;22.10;34.80;;;;;;5028588;28;20339;-47
2020/12/13 05:43:23;;;;;;;;;;;20.60;38.90;;;;;;5028414;28;19925;-47
2020/12/13 05:48:53;;;;;;;;;;;22.30;41.10;;;;;;5028416;28;20068;-46
2020/12/13 05:53:52;;;;;;;;;;;24.10;38.20;;;;;;5028613;28;19925;-47
2020/12/13 05:56:18;;;;;;;;;;;24.60;37.80;;;;;;5027826;28;19955;-46
2020/12/13 05:58:44;;;;;;;;;;;25.00;37.50;;;;;;5027054;28;19913;-46
2020/12/13 06:01:09;;;;;;;;;;;25.20;37.40;;;;;;5027698;28;19970;-46
2020/12/13 06:03:35;;;;;;;;;;;25.40;37.50;;;;;;5026747;28;19932;-46
2020/12/13 06:06:10;;;;;;;;;;;25.50;37.50;;;;;;5027867;28;19974;-46
2020/12/13 06:08:47;;;;;;;;;;;25.70;37.70;;;;;;5028970;28;19913;-46
2020/12/13 06:11:13;;;;;;;;;;;25.80;37.90;;;;;;5027888;28;19928;-46
2020/12/13 06:13:38;;;;;;;;;;;25.80;37.90;;;;;;5027382;28;19929;-46
2020/12/13 06:16:04;;;;;;;;;;;25.80;38.10;;;;;;5030249;28;19929;-47
2020/12/13 06:18:29;;;;;;;;;;;25.90;38.20;;;;;;5031717;28;19921;-46
2020/12/13 06:20:55;;;;;;;;;;;25.90;38.30;;;;;;5031939;28;19959;-48
2020/12/13 06:23:20;;;;;;;;;;;26.00;38.70;;;;;;5030489;28;19921;-46
2020/12/13 06:25:45;;;;;;;;;;;26.00;39.20;;;;;;5032559;28;19972;-46
2020/12/13 06:28:11;;;;;;;;;;;25.90;39.40;;;;;;5030259;28;19913;-46
2020/12/13 06:30:37;;;;;;;;;;;25.90;40.00;;;;;;5031763;28;19913;-47
2020/12/13 06:33:02;;;;;;;;;;;26.00;39.50;;;;;;5036541;28;20352;-46
2020/12/13 06:35:28;;;;;;;;;;;26.10;39.30;;;;;;5036190;28;19940;-47
2020/12/13 06:37:53;;;;;;;;;;;26.10;39.30;;;;;;5017471;28;20008;-47
2020/12/13 06:40:22;;;;;;;;;;;26.10;39.30;;;;;;5016696;28;19909;-47
2020/12/13 06:42:48;;;;;;;;;;;26.10;39.30;;;;;;5016579;28;19965;-46
2020/12/13 06:45:14;;;;;;;;;;;26.10;39.50;;;;;;5016675;28;19916;-47
2020/12/13 06:47:40;;;;;;;;;;;26.10;39.50;;;;;;5032074;28;20299;-47
2020/12/13 06:50:09;;;;;;;;;;;26.10;39.60;;;;;;5031852;28;19967;-47
2020/12/13 06:52:35;;;;;;;;;;;26.20;39.70;;;;;;5031911;28;19975;-47
2020/12/13 06:55:04;;;;;;;;;;;26.20;39.70;;;;;;5031491;28;19933;-46
2020/12/13 06:57:30;;;;;;;;;;;26.10;39.70;;;;;;5031136;28;19975;-47
2020/12/13 06:59:56;;;;;;;;;;;26.10;39.90;;;;;;5031202;28;19924;-47
2020/12/13 07:02:40;;;;;;;;;;;26.10;39.90;;;;;;5031588;28;19921;-47
2020/12/13 07:05:05;;;;;;;;;;;26.10;40.00;;;;;;5031404;28;19972;-47
2020/12/13 07:07:31;;;;;;;;;;;26.10;40.00;;;;;;5032558;28;20409;-47
2020/12/13 07:09:57;;;;;;;;;;;26.10;40.00;;;;;;5032067;28;21166;-47
2020/12/13 07:12:22;;;;;;;;;;;26.10;40.10;;;;;;5029538;28;19981;-47
2020/12/13 07:14:48;;;;;;;;;;;26.10;40.10;;;;;;5029784;28;19960;-47
2020/12/13 07:17:16;;;;;;;;;;;26.10;40.20;;;;;;5029256;28;20260;-47
2020/12/13 07:19:41;;;;;;;;;;;26.10;40.20;;;;;;5029290;28;20092;-47
2020/12/13 07:22:09;;;;;;;;;;;26.10;40.30;;;;;;5031017;28;20698;-47
2020/12/13 07:24:34;;;;;;;;;;;26.10;40.30;;;;;;5030440;28;19925;-47
2020/12/13 07:27:00;;;;;;;;;;;26.10;40.30;;;;;;5029334;28;20180;-47
2020/12/13 07:29:25;;;;;;;;;;;26.10;40.40;;;;;;5030425;28;19923;-47
2020/12/13 07:31:51;;;;;;;;;;;26.20;40.40;;;;;;5030983;28;20378;-47
2020/12/13 07:34:17;;;;;;;;;;;26.20;40.50;;;;;;5030524;28;19991;-47
2020/12/13 07:36:43;;;;;;;;;;;26.20;40.50;;;;;;5030464;28;19948;-47
2020/12/13 07:39:11;;;;;;;;;;;26.10;40.40;;;;;;5033741;28;19967;-47
2020/12/13 07:41:37;;;;;;;;;;;26.20;40.50;;;;;;5016151;28;20330;-47
2020/12/13 07:44:06;;;;;;;;;;;26.20;40.50;;;;;;5020806;28;19913;-47
2020/12/13 07:46:31;;;;;;;;;;;26.20;40.50;;;;;;5032801;28;20363;-47
2020/12/13 07:49:09;;;;;;;;;;;26.30;40.40;;;;;;5030376;28;19917;-47
2020/12/13 07:51:36;;;;;;;;;;;26.20;40.40;;;;;;5030148;28;19913;-47
2020/12/13 07:54:11;;;;;;;;;;;26.20;40.60;;;;;;5030061;28;19980;-48
2020/12/13 07:56:36;;;;;;;;;;;26.20;40.50;;;;;;5029869;28;19921;-47
2020/12/13 07:59:11;;;;;;;;;;;26.20;40.60;;;;;;5029994;28;19920;-46
2020/12/13 08:01:36;;;;;;;;;;;26.20;40.60;;;;;;5030096;28;19943;-47
2020/12/13 08:04:02;;;;;;;;;;;26.30;40.60;;;;;;5029710;28;20476;-47
2020/12/13 08:06:27;;;;;;;;;;;26.30;40.70;;;;;;5030165;28;19913;-47
2020/12/13 08:08:53;;;;;;;;;;;26.20;40.70;;;;;;5030779;28;19939;-47
2020/12/13 08:11:18;;;;;;;;;;;26.20;40.70;;;;;;5029909;28;19956;-46
2020/12/13 08:13:45;;;;;;;;;;;26.30;40.70;;;;;;5028593;28;19921;-47
2020/12/13 08:16:13;;;;;;;;;;;26.30;40.70;;;;;;5029398;28;20002;-47
2020/12/13 08:18:40;;;;;;;;;;;26.30;40.60;;;;;;5029712;28;19940;-45
2020/12/13 08:21:05;;;;;;;;;;;26.30;40.60;;;;;;5028216;28;19913;-46
2020/12/13 08:23:31;;;;;;;;;;;26.30;40.60;;;;;;5028499;28;19928;-46
2020/12/13 08:25:56;;;;;;;;;;;26.30;40.60;;;;;;5028460;28;19967;-46
2020/12/13 08:28:21;;;;;;;;;;;26.30;40.60;;;;;;5028333;28;19924;-46
2020/12/13 08:30:48;;;;;;;;;;;26.30;40.70;;;;;;5028418;28;19924;-46
2020/12/13 08:33:13;;;;;;;;;;;26.30;40.80;;;;;;5029057;28;19921;-46
2020/12/13 08:35:39;;;;;;;;;;;26.30;40.80;;;;;;5027677;28;19913;-46
2020/12/13 08:38:04;;;;;;;;;;;26.30;40.80;;;;;;5029046;28;19913;-46
2020/12/13 08:40:36;;;;;;;;;;;26.30;40.80;;;;;;5029864;28;19913;-46
2020/12/13 08:43:02;;;;;;;;;;;26.40;40.80;;;;;;5028844;28;19913;-48
2020/12/13 08:45:27;;;;;;;;;;;26.30;40.80;;;;;;5029287;28;19963;-46
2020/12/13 08:47:58;;;;;;;;;;;26.30;40.70;;;;;;5029343;28;20287;-47
2020/12/13 08:50:23;;;;;;;;;;;26.30;40.80;;;;;;5028880;28;19960;-48
2020/12/13 08:52:48;;;;;;;;;;;26.30;40.90;;;;;;5029419;28;19960;-48
2020/12/13 08:55:14;;;;;;;;;;;26.30;40.90;;;;;;5029143;28;20387;-48
2020/12/13 08:57:45;;;;;;;;;;;26.30;40.80;;;;;;5027350;28;19927;-48
2020/12/13 09:00:14;;;;;;;;;;;26.30;40.80;;;;;;5029321;28;19921;-48
2020/12/13 09:02:42;;;;;;;;;;;26.30;40.90;;;;;;5028226;28;19913;-48
2020/12/13 09:05:07;;;;;;;;;;;26.30;40.80;;;;;;5026929;28;20405;-48
2020/12/13 09:07:33;;;;;;;;;;;26.30;40.90;;;;;;5030350;28;19921;-46
2020/12/13 09:10:08;;;;;;;;;;;26.30;40.90;;;;;;5029623;28;19932;-46
2020/12/13 09:12:33;;;;;;;;;;;26.30;40.90;;;;;;5027993;28;19932;-46
2020/12/13 09:15:06;;;;;;;;;;;26.30;40.80;;;;;;5028890;28;20271;-46
2020/12/13 09:17:34;;;;;;;;;;;26.30;40.80;;;;;;5027707;28;20299;-46
2020/12/13 09:19:59;;;;;;;;;;;26.30;40.80;;;;;;5028837;28;19964;-46
2020/12/13 09:22:24;;;;;;;;;;;26.30;40.90;;;;;;5028402;28;19917;-46
2020/12/13 09:24:50;;;;;;;;;;;26.30;40.90;;;;;;5028469;28;20298;-46
2020/12/13 09:27:18;;;;;;;;;;;26.30;40.90;;;;;;5028569;28;19913;-46
2020/12/13 09:29:44;;;;;;;;;;;26.30;40.90;;;;;;5027989;28;20306;-46
2020/12/13 09:32:09;;;;;;;;;;;26.40;40.80;;;;;;5028888;28;19913;-45
2020/12/13 09:34:36;;;;;;;;;;;26.30;40.80;;;;;;5028100;28;19925;-46
2020/12/13 09:37:02;;;;;;;;;;;26.40;40.90;;;;;;5028383;28;19927;-46
2020/12/13 09:39:28;;;;;;;;;;;26.30;40.80;;;;;;5027970;28;19913;-46
2020/12/13 09:41:54;;;;;;;;;;;26.30;41.00;;;;;;5028420;28;20304;-46
2020/12/13 09:44:20;;;;;;;;;;;26.40;40.90;;;;;;5028450;28;19921;-46
2020/12/13 09:46:45;;;;;;;;;;;26.40;40.90;;;;;;5028454;28;19913;-46
2020/12/13 09:49:11;;;;;;;;;;;26.40;40.80;;;;;;5027695;28;19921;-46
2020/12/13 09:51:36;;;;;;;;;;;26.40;40.80;;;;;;5028203;28;19913;-46
2020/12/13 09:54:02;;;;;;;;;;;26.40;40.70;;;;;;5027659;28;19929;-46
2020/12/13 09:56:27;;;;;;;;;;;26.40;40.70;;;;;;5028498;28;19913;-46
2020/12/13 09:58:53;;;;;;;;;;;26.40;40.80;;;;;;5028126;28;21649;-46
2020/12/13 10:01:18;;;;;;;;;;;26.40;40.70;;;;;;5028688;28;19932;-46
2020/12/13 10:03:50;;;;;;;;;;;26.40;40.60;;;;;;5027871;28;20475;-46
2020/12/13 10:11:28;;;;;;;;;;;26.40;40.70;;;;;;5028163;28;19921;-46
2020/12/13 10:13:54;;;;;;;;;;;26.40;40.70;;;;;;5028719;28;19925;-46
2020/12/13 10:16:19;;;;;;;;;;;26.40;40.60;;;;;;5028139;28;19928;-46
2020/12/13 10:18:45;;;;;;;;;;;26.50;40.60;;;;;;5027937;28;19913;-46
2020/12/13 10:21:10;;;;;;;;;;;26.50;40.50;;;;;;5027645;28;19921;-46
2020/12/13 10:23:36;;;;;;;;;;;26.60;40.50;;;;;;5027855;28;19920;-47
2020/12/13 10:26:01;;;;;;;;;;;26.60;40.50;;;;;;5028708;28;19917;-47
2020/12/13 10:28:27;;;;;;;;;;;26.60;40.50;;;;;;5027947;28;19921;-47
2020/12/13 10:30:52;;;;;;;;;;;26.60;40.40;;;;;;5028262;28;19921;-47
2020/12/13 10:33:18;;;;;;;;;;;26.70;40.40;;;;;;5027728;28;21053;-47
2020/12/13 10:35:44;;;;;;;;;;;26.70;40.40;;;;;;5027697;28;20390;-47
2020/12/13 10:38:10;;;;;;;;;;;26.70;40.30;;;;;;5027862;28;19975;-47
2020/12/13 10:40:37;;;;;;;;;;;26.80;40.20;;;;;;5028068;28;19959;-47
2020/12/13 10:43:02;;;;;;;;;;;26.80;40.10;;;;;;5027572;28;19921;-46
2020/12/13 10:45:27;;;;;;;;;;;26.80;40.10;;;;;;5027855;28;19920;-46
2020/12/13 10:47:53;;;;;;;;;;;26.80;40.00;;;;;;5027716;28;20031;-47
2020/12/13 10:50:19;;;;;;;;;;;26.80;40.00;;;;;;5027740;28;20382;-47
2020/12/13 10:52:45;;;;;;;;;;;26.80;40.10;;;;;;5027366;28;19921;-46
2020/12/13 10:55:10;;;;;;;;;;;26.80;40.10;;;;;;5027887;28;19925;-47
2020/12/13 10:57:36;;;;;;;;;;;26.80;40.20;;;;;;5027054;28;19960;-46
2020/12/13 11:00:02;;;;;;;;;;;26.80;40.20;;;;;;5028677;28;19928;-47
2020/12/13 11:02:28;;;;;;;;;;;26.70;40.20;;;;;;5031060;28;19913;-46
2020/12/13 11:04:53;;;;;;;;;;;26.70;40.30;;;;;;5031052;28;20318;-47
2020/12/13 11:07:18;;;;;;;;;;;26.70;40.20;;;;;;5031072;28;19917;-46
2020/12/13 11:09:44;;;;;;;;;;;26.70;40.20;;;;;;5031706;28;19913;-47
2020/12/13 11:12:09;;;;;;;;;;;26.70;40.20;;;;;;5030658;28;20702;-46
2020/12/13 11:14:35;;;;;;;;;;;26.70;40.30;;;;;;5031324;28;19979;-46
2020/12/13 11:17:00;;;;;;;;;;;26.70;40.30;;;;;;5030014;28;20397;-46
2020/12/13 11:19:26;;;;;;;;;;;26.70;40.30;;;;;;5031052;28;19920;-47
2020/12/13 11:21:51;;;;;;;;;;;26.70;40.40;;;;;;5030957;28;19928;-47
2020/12/13 11:24:17;;;;;;;;;;;26.70;40.40;;;;;;5030775;28;20321;-46
2020/12/13 11:26:46;;;;;;;;;;;26.70;40.40;;;;;;5030790;28;19947;-46
2020/12/13 11:29:11;;;;;;;;;;;26.70;40.40;;;;;;5030689;28;19975;-46
2020/12/13 11:31:37;;;;;;;;;;;26.70;40.40;;;;;;5030548;28;20314;-46
2020/12/13 11:34:02;;;;;;;;;;;26.70;40.30;;;;;;5031016;28;19929;-46
2020/12/13 11:36:28;;;;;;;;;;;26.70;40.40;;;;;;5030188;28;20009;-46
2020/12/13 11:38:53;;;;;;;;;;;26.70;40.30;;;;;;5030514;28;19920;-46
2020/12/13 11:41:23;;;;;;;;;;;26.70;40.30;;;;;;5030354;28;20003;-47
2020/12/13 11:43:49;;;;;;;;;;;26.70;40.40;;;;;;5030635;28;19959;-46
2020/12/13 11:46:14;;;;;;;;;;;26.70;40.40;;;;;;5030593;28;19960;-46
2020/12/13 11:48:39;;;;;;;;;;;26.60;40.30;;;;;;5030650;28;19917;-46
2020/12/13 11:51:05;;;;;;;;;;;26.70;40.40;;;;;;5030402;28;20362;-46
2020/12/13 11:53:30;;;;;;;;;;;26.70;40.40;;;;;;5030143;28;19921;-46
2020/12/13 11:55:57;;;;;;;;;;;26.70;40.40;;;;;;5030189;28;19921;-47
2020/12/13 11:58:22;;;;;;;;;;;26.70;40.50;;;;;;5029955;28;19984;-46
2020/12/13 12:00:48;;;;;;;;;;;26.70;40.40;;;;;;5030409;28;19960;-47
2020/12/13 12:03:13;;;;;;;;;;;26.70;40.40;;;;;;5030274;28;19944;-47
2020/12/13 12:05:39;;;;;;;;;;;26.70;40.40;;;;;;5030092;28;20329;-47
2020/12/13 12:08:04;;;;;;;;;;;26.70;40.40;;;;;;5030862;28;19920;-47
2020/12/13 12:10:30;;;;;;;;;;;26.70;40.40;;;;;;5030467;28;19971;-46
2020/12/13 12:12:55;;;;;;;;;;;26.70;40.40;;;;;;5029142;28;19921;-47
2020/12/13 12:15:21;;;;;;;;;;;26.60;40.40;;;;;;5030726;28;20023;-47
2020/12/13 12:17:46;;;;;;;;;;;26.70;40.40;;;;;;5029409;28;19963;-46
2020/12/13 12:20:16;;;;;;;;;;;26.70;40.40;;;;;;5029753;28;19917;-46
2020/12/13 12:22:44;;;;;;;;;;;26.70;40.40;;;;;;5029648;28;19927;-46
2020/12/13 12:25:10;;;;;;;;;;;26.70;40.40;;;;;;5029271;28;20287;-46
2020/12/13 12:27:36;;;;;;;;;;;26.70;40.40;;;;;;5029321;28;19913;-47
2020/12/13 12:30:02;;;;;;;;;;;26.70;40.50;;;;;;5030242;28;19924;-47
2020/12/13 12:32:28;;;;;;;;;;;26.70;40.50;;;;;;5030127;28;19917;-47
2020/12/13 12:34:53;;;;;;;;;;;26.60;40.40;;;;;;5029447;28;19967;-47
2020/12/13 12:37:19;;;;;;;;;;;26.70;40.50;;;;;;5029368;28;19921;-47
2020/12/13 12:39:44;;;;;;;;;;;26.70;40.40;;;;;;5028682;28;19913;-47
2020/12/13 12:42:10;;;;;;;;;;;26.70;40.40;;;;;;5029631;28;19928;-46
2020/12/13 12:44:35;;;;;;;;;;;26.70;40.40;;;;;;5030001;28;19913;-47
2020/12/13 12:47:01;;;;;;;;;;;26.70;40.40;;;;;;5029369;28;19921;-47
2020/12/13 12:49:26;;;;;;;;;;;26.70;40.50;;;;;;5029384;28;19913;-46
2020/12/13 12:51:52;;;;;;;;;;;26.60;40.40;;;;;;5029031;28;20475;-47
2020/12/13 12:54:17;;;;;;;;;;;26.60;40.50;;;;;;5028769;28;19936;-47
2020/12/13 12:56:43;;;;;;;;;;;26.60;40.50;;;;;;5029816;28;19928;-47
2020/12/13 12:59:14;;;;;;;;;;;26.60;40.70;;;;;;5028646;28;20386;-47
2020/12/13 13:01:48;;;;;;;;;;;26.60;40.50;;;;;;5030256;28;19913;-46
2020/12/13 13:04:21;;;;;;;;;;;26.60;40.50;;;;;;5028893;28;20379;-46
2020/12/13 13:11:46;;;;;;;;;;;26.60;40.50;;;;;;5029506;28;19925;-46
2020/12/13 13:14:12;;;;;;;;;;;26.60;40.50;;;;;;5029070;28;19929;-47
2020/12/13 13:16:37;;;;;;;;;;;26.60;40.50;;;;;;5028377;28;19983;-46
2020/12/13 13:19:05;;;;;;;;;;;26.60;40.50;;;;;;5028001;28;19917;-46
2020/12/13 13:21:37;;;;;;;;;;;26.60;40.50;;;;;;5028877;28;20012;-46
2020/12/13 13:24:02;;;;;;;;;;;26.60;41.10;;;;;;5027949;28;20430;-47
2020/12/13 13:26:28;;;;;;;;;;;26.60;40.50;;;;;;5028765;28;20016;-47
2020/12/13 13:28:53;;;;;;;;;;;26.60;40.50;;;;;;5028300;28;19921;-47
2020/12/13 13:31:22;;;;;;;;;;;26.60;40.40;;;;;;5028649;28;19936;-46
2020/12/13 13:33:48;;;;;;;;;;;26.60;40.40;;;;;;5028145;28;19975;-46
2020/12/13 13:36:13;;;;;;;;;;;26.60;40.50;;;;;;5028013;28;19975;-47
2020/12/13 13:38:39;;;;;;;;;;;26.60;40.50;;;;;;5028397;28;19979;-46
2020/12/13 13:41:07;;;;;;;;;;;26.60;40.40;;;;;;5028453;28;19991;-47
2020/12/13 13:43:37;;;;;;;;;;;26.70;40.40;;;;;;5027976;28;20416;-47
2020/12/13 13:51:01;;;;;;;;;;;26.60;40.40;;;;;;5028107;28;19964;-47
2020/12/13 13:53:26;;;;;;;;;;;26.60;40.40;;;;;;5028639;28;19957;-46
2020/12/13 13:58:19;;;;;;;;;;;26.60;40.40;;;;;;5028195;28;19921;-47
2020/12/13 14:00:44;;;;;;;;;;;26.70;40.40;;;;;;5028352;28;20012;-47
2020/12/13 14:03:09;;;;;;;;;;;26.70;40.40;;;;;;5028008;28;20451;-46
2020/12/13 14:05:41;;;;;;;;;;;26.60;40.40;;;;;;5027956;28;19928;-47
2020/12/13 14:08:22;;;;;;;;;;;26.60;40.40;;;;;;5028995;28;19920;-47
2020/12/13 14:10:48;;;;;;;;;;;26.60;40.50;;;;;;5028531;28;20410;-46
2020/12/13 14:13:14;;;;;;;;;;;26.60;40.40;;;;;;5027453;28;19995;-47
2020/12/13 14:15:39;;;;;;;;;;;26.70;40.40;;;;;;5028633;28;20375;-47
2020/12/13 14:18:05;;;;;;;;;;;26.60;40.40;;;;;;5027595;28;19925;-47
2020/12/13 14:20:30;;;;;;;;;;;26.60;40.50;;;;;;5028101;28;19921;-47
2020/12/13 14:22:56;;;;;;;;;;;26.60;40.50;;;;;;5028534;28;19913;-46
2020/12/13 14:25:21;;;;;;;;;;;26.60;40.50;;;;;;5028463;28;20283;-46
2020/12/13 14:27:47;;;;;;;;;;;26.60;40.50;;;;;;5027676;28;19921;-47
2020/12/13 14:30:12;;;;;;;;;;;26.50;40.50;;;;;;5027583;28;20044;-47
2020/12/13 14:32:38;;;;;;;;;;;26.50;40.60;;;;;;5027898;28;19920;-47
2020/12/13 14:35:05;;;;;;;;;;;26.50;40.50;;;;;;5028856;28;21289;-46
2020/12/13 14:37:31;;;;;;;;;;;26.50;40.60;;;;;;5031565;28;19921;-47
2020/12/13 14:39:56;;;;;;;;;;;26.50;40.60;;;;;;5031316;28;19924;-47